Time;durP1;ratioP1;P1;durP2;ratioP2;P2;SDS_P1;SDS_P2;PMS_P1;PMS_P2;Temp;Humidity;BMP_temperature;BMP_pressure;BME280_temperature;BME280_humidity;BME280_pressure;Samples;Min_cycle;Max_cycle;Signal;HPM_P1;HPM_P2
2023/07/12 00:01:28;;;;;;;12.13;2.65;;;;;;;13.41;100.00;99928.53;6180155;22;20135;-92
2023/07/12 00:03:54;;;;;;;9.05;2.33;;;;;;;13.35;100.00;99929.03;6180227;22;20001;-92
2023/07/12 00:06:32;;;;;;;11.18;2.45;;;;;;;13.32;100.00;99932.69;6179902;23;20005;-92
2023/07/12 00:08:57;;;;;;;6.57;2.25;;;;;;;13.32;100.00;99935.28;6180882;22;20059;-91
2023/07/12 00:11:23;;;;;;;11.30;3.22;;;;;;;13.37;100.00;99927.16;6179985;23;20001;-92
2023/07/12 00:13:50;;;;;;;7.03;2.25;;;;;;;13.31;100.00;99937.97;6180063;23;20009;-92
2023/07/12 00:16:21;;;;;;;8.65;2.47;;;;;;;13.37;100.00;99942.69;6180103;22;19997;-91
2023/07/12 00:18:46;;;;;;;12.95;3.78;;;;;;;13.37;100.00;99938.34;6180150;22;20008;-92
2023/07/12 00:21:12;;;;;;;5.55;2.08;;;;;;;13.30;100.00;99944.09;6180002;22;20001;-92
2023/07/12 00:23:38;;;;;;;11.35;3.60;;;;;;;13.32;100.00;99939.63;6180050;22;20008;-92
2023/07/12 00:26:19;;;;;;;13.93;2.53;;;;;;;13.35;100.00;99949.75;6179872;22;20028;-92
2023/07/12 00:28:45;;;;;;;7.03;2.50;;;;;;;13.44;100.00;99943.88;6179677;22;19997;-92
2023/07/12 00:31:10;;;;;;;12.98;2.60;;;;;;;13.44;100.00;99941.28;6179954;22;20484;-91
2023/07/12 00:33:35;;;;;;;15.30;2.92;;;;;;;13.53;100.00;99942.31;6179306;23;20001;-92
2023/07/12 00:36:01;;;;;;;19.33;2.78;;;;;;;13.53;100.00;99930.19;6180401;22;20097;-91
2023/07/12 00:38:26;;;;;;;12.90;3.20;;;;;;;13.49;100.00;99928.78;6181197;23;20005;-92
2023/07/12 00:41:16;;;;;;;10.00;3.20;;;;;;;13.52;100.00;99931.13;6181217;22;20419;-91
2023/07/12 00:44:04;;;;;;;10.75;2.58;;;;;;;13.41;100.00;99928.53;6181138;22;20001;-93
2023/07/12 00:46:38;;;;;;;7.05;2.13;;;;;;;13.34;100.00;99932.53;6180857;22;20508;-92
2023/07/12 00:49:04;;;;;;;6.75;2.58;;;;;;;13.26;100.00;99933.94;6285157;22;20422;-91
2023/07/12 00:51:58;;;;;;;8.30;2.40;;;;;;;13.32;100.00;99934.44;6285293;22;20066;-92
2023/07/12 00:54:26;;;;;;;11.85;2.90;;;;;;;13.43;100.00;99942.22;6281489;22;20044;-91
2023/07/12 00:56:52;;;;;;;12.75;2.17;;;;;;;13.39;100.00;99940.81;6180781;22;20020;-92
2023/07/12 00:59:28;;;;;;;13.63;2.67;;;;;;;13.50;100.00;99943.38;6180959;22;20008;-92
2023/07/12 01:01:58;;;;;;;10.77;2.63;;;;;;;13.59;100.00;99949.63;6180984;23;20427;-92
2023/07/12 01:04:27;;;;;;;12.48;3.15;;;;;;;13.58;100.00;99943.63;6285288;22;20001;-92
2023/07/12 01:06:53;;;;;;;7.13;2.35;;;;;;;13.58;100.00;99947.97;6181293;22;20005;-92
2023/07/12 01:09:20;;;;;;;16.08;3.10;;;;;;;13.69;100.00;99948.78;6285662;22;20005;-93
2023/07/12 01:11:47;;;;;;;8.15;2.33;;;;;;;13.73;100.00;99936.41;6180740;23;20009;-91
2023/07/12 01:14:15;;;;;;;14.82;2.90;;;;;;;13.76;100.00;99943.13;6180975;22;20326;-91
2023/07/12 01:16:43;;;;;;;10.30;2.17;;;;;;;13.72;100.00;99941.72;6181108;22;20001;-92
2023/07/12 01:19:09;;;;;;;16.83;4.07;;;;;;;13.63;100.00;99951.88;6181040;23;20037;-94
2023/07/12 01:21:41;;;;;;;11.30;2.53;;;;;;;13.64;100.00;99945.72;6180742;22;20009;-93
2023/07/12 01:24:06;;;;;;;11.93;2.53;;;;;;;13.57;100.00;99943.75;6285068;22;20059;-92
2023/07/12 01:26:34;;;;;;;13.45;3.05;;;;;;;13.56;100.00;99935.16;6180759;23;20357;-91
2023/07/12 01:29:02;;;;;;;11.25;2.67;;;;;;;13.47;100.00;99938.44;6181143;22;20005;-92
2023/07/12 01:31:30;;;;;;;12.60;2.53;;;;;;;13.50;100.00;99943.38;6181136;22;20412;-92
2023/07/12 01:33:56;;;;;;;14.00;3.25;;;;;;;13.46;100.00;99942.81;6180608;23;20374;-92
2023/07/12 01:36:22;;;;;;;10.80;2.35;;;;;;;13.58;100.00;99946.22;6180784;22;20434;-93
2023/07/12 01:38:50;;;;;;;12.13;3.17;;;;;;;13.66;100.00;99943.84;6180803;22;20005;-91
2023/07/12 01:41:15;;;;;;;10.77;2.60;;;;;;;13.72;100.00;99942.53;6181042;22;20003;-92
2023/07/12 01:43:41;;;;;;;8.43;2.17;;;;;;;13.70;100.00;99950.47;6180717;22;20005;-92
2023/07/12 01:46:06;;;;;;;8.32;2.13;;;;;;;13.61;100.00;99948.56;6180871;22;20328;-92
2023/07/12 01:48:32;;;;;;;4.55;1.80;;;;;;;13.54;100.00;99944.81;6180719;23;20054;-92
2023/07/12 01:50:59;;;;;;;10.23;2.40;;;;;;;13.64;100.00;99945.72;6181045;22;20060;-92
2023/07/12 01:53:25;;;;;;;11.30;2.22;;;;;;;13.55;100.00;99949.03;6180639;22;20041;-93
2023/07/12 01:55:51;;;;;;;8.63;1.80;;;;;;;13.43;100.00;99943.03;6180910;22;20028;-92
2023/07/12 01:58:16;;;;;;;10.27;2.05;;;;;;;13.35;100.00;99944.56;6180828;22;20005;-92
2023/07/12 02:00:42;;;;;;;7.93;2.17;;;;;;;13.45;100.00;99937.72;6181041;22;20453;-92
2023/07/12 02:03:08;;;;;;;13.15;2.38;;;;;;;13.35;100.00;99940.22;6180709;22;20004;-92
2023/07/12 02:05:33;;;;;;;10.70;2.53;;;;;;;13.26;100.00;99944.31;6180469;23;20033;-92
2023/07/12 02:07:59;;;;;;;8.48;2.15;;;;;;;13.15;100.00;99939.13;6180439;23;20001;-92
2023/07/12 02:10:25;;;;;;;14.98;2.42;;;;;;;13.22;100.00;99934.31;6180533;23;19997;-91
2023/07/12 02:12:50;;;;;;;8.82;1.90;;;;;;;13.22;100.00;99931.72;6180725;22;20010;-92
2023/07/12 02:15:16;;;;;;;14.05;2.30;;;;;;;13.18;100.00;99932.88;6180946;22;20001;-91
2023/07/12 02:17:42;;;;;;;8.88;1.77;;;;;;;13.13;100.00;99922.88;6180808;22;20032;-93
2023/07/12 02:20:09;;;;;;;9.52;2.08;;;;;;;13.15;100.00;99920.97;6180804;22;20015;-92
2023/07/12 02:22:37;;;;;;;13.27;2.63;;;;;;;13.06;100.00;99921.69;6283877;22;20001;-92
2023/07/12 02:25:03;;;;;;;7.97;2.00;;;;;;;13.05;100.00;99918.28;6180454;22;20028;-92
2023/07/12 02:27:28;;;;;;;7.10;1.70;;;;;;;13.07;100.00;99931.13;6180684;22;20005;-92
2023/07/12 02:29:54;;;;;;;6.95;2.47;;;;;;;13.06;100.00;99932.03;6180986;22;20005;-92
2023/07/12 02:32:20;;;;;;;10.00;2.28;;;;;;;13.08;100.00;99930.16;6180488;22;20084;-93
2023/07/12 02:34:47;;;;;;;9.00;1.90;;;;;;;13.06;100.00;99927.69;6180670;23;20025;-92
2023/07/12 02:37:13;;;;;;;13.32;2.90;;;;;;;13.04;100.00;99933.91;6180627;22;20001;-93
2023/07/12 02:39:38;;;;;;;8.77;2.03;;;;;;;12.97;100.00;99930.13;6180558;22;20555;-92
2023/07/12 02:42:04;;;;;;;7.90;1.70;;;;;;;13.07;100.00;99931.13;6180590;22;20001;-93
2023/07/12 02:44:29;;;;;;;13.07;2.50;;;;;;;13.00;100.00;99928.16;6180197;23;20434;-92
2023/07/12 02:46:55;;;;;;;13.05;2.75;;;;;;;12.94;100.00;99932.97;6180342;22;20084;-93
2023/07/12 02:49:20;;;;;;;9.55;2.97;;;;;;;12.93;100.00;99941.69;6180489;22;20028;-92
2023/07/12 02:51:45;;;;;;;9.10;2.38;;;;;;;12.85;100.00;99943.09;6180640;22;20005;-92
2023/07/12 02:54:11;;;;;;;4.22;2.00;;;;;;;12.84;100.00;99944.00;6283670;22;20009;-91
2023/07/12 02:56:36;;;;;;;12.77;2.42;;;;;;;12.80;100.00;99952.97;6180623;22;20000;-92
2023/07/12 02:59:01;;;;;;;10.02;2.22;;;;;;;12.81;100.00;99946.84;6179829;23;20000;-92
2023/07/12 03:01:27;;;;;;;8.25;1.83;;;;;;;12.74;100.00;99945.66;6180050;23;20005;-93
2023/07/12 03:03:52;;;;;;;11.75;2.20;;;;;;;12.66;100.00;99953.16;6283634;22;20005;-91
2023/07/12 03:06:18;;;;;;;7.15;1.85;;;;;;;12.64;100.00;99961.03;6180611;22;20001;-93
2023/07/12 03:08:43;;;;;;;11.13;2.13;;;;;;;12.61;100.00;99955.28;6180549;22;20008;-93
2023/07/12 03:11:08;;;;;;;10.02;2.40;;;;;;;12.66;100.00;99960.94;6180209;23;20001;-92
2023/07/12 03:13:34;;;;;;;14.73;2.88;;;;;;;12.66;100.00;99963.53;6180785;22;20013;-92
2023/07/12 03:16:06;;;;;;;9.07;2.40;;;;;;;12.69;100.00;99968.47;6180308;23;20012;-92
2023/07/12 03:18:31;;;;;;;12.32;2.92;;;;;;;12.73;100.00;99969.06;6283885;22;20001;-92
2023/07/12 03:21:01;;;;;;;10.80;2.63;;;;;;;12.74;100.00;99968.94;6180240;22;20005;-93
2023/07/12 03:23:28;;;;;;;10.95;2.30;;;;;;;12.75;100.00;99974.94;6180032;23;20037;-92
2023/07/12 03:25:54;;;;;;;7.80;2.17;;;;;;;12.74;100.00;99957.78;6180324;22;20005;-93
2023/07/12 03:28:19;;;;;;;10.70;2.72;;;;;;;12.75;100.00;99959.41;6283934;22;20024;-92
2023/07/12 03:30:56;;;;;;;14.10;2.30;;;;;;;12.77;100.00;99965.31;6283502;22;20065;-93
2023/07/12 03:33:22;;;;;;;6.20;2.42;;;;;;;12.73;100.00;99959.53;6283903;22;20009;-92
2023/07/12 03:35:50;;;;;;;7.60;2.60;;;;;;;12.69;100.00;99960.69;6179993;23;20484;-91
2023/07/12 03:38:16;;;;;;;5.40;2.08;;;;;;;12.67;100.00;99957.41;6180123;22;19998;-92
2023/07/12 03:40:41;;;;;;;7.35;1.92;;;;;;;12.62;100.00;99957.72;6283710;22;20054;-92
2023/07/12 03:43:06;;;;;;;4.00;1.92;;;;;;;12.63;100.00;99968.91;6180157;22;20011;-92
2023/07/12 03:45:32;;;;;;;11.88;2.25;;;;;;;12.53;100.00;99970.53;6179740;23;20008;-92
2023/07/12 03:47:57;;;;;;;11.73;2.33;;;;;;;12.45;100.00;99960.72;6179896;22;20080;-92
2023/07/12 03:50:23;;;;;;;11.45;2.30;;;;;;;12.45;100.00;99973.69;6180019;23;20005;-92
2023/07/12 03:52:48;;;;;;;7.68;2.03;;;;;;;12.42;100.00;99972.13;6180233;23;20331;-91
2023/07/12 03:55:13;;;;;;;9.23;3.15;;;;;;;12.41;100.00;99965.31;6179790;23;20427;-92
2023/07/12 03:57:41;;;;;;;12.75;3.10;;;;;;;12.36;100.00;99972.59;6180129;22;20380;-92
2023/07/12 04:00:09;;;;;;;8.75;2.03;;;;;;;12.41;100.00;99974.81;6179777;23;20035;-92
2023/07/12 04:02:34;;;;;;;8.73;2.28;;;;;;;12.33;100.00;99983.16;6180306;22;20009;-92
2023/07/12 04:04:59;;;;;;;19.83;3.00;;;;;;;12.26;100.00;99979.34;6180437;22;20059;-94
2023/07/12 04:07:25;;;;;;;9.32;2.65;;;;;;;12.29;100.00;99975.72;6179942;23;20441;-92
2023/07/12 04:09:50;;;;;;;8.60;1.95;;;;;;;12.27;100.00;99978.44;6180093;22;19997;-92
2023/07/12 04:12:16;;;;;;;6.25;2.00;;;;;;;12.21;100.00;99973.69;6180969;22;20088;-92
2023/07/12 04:14:41;;;;;;;11.43;2.38;;;;;;;12.18;100.00;99974.72;6181208;22;20007;-91
2023/07/12 04:17:06;;;;;;;11.80;2.17;;;;;;;12.19;100.00;99985.91;6181068;23;19993;-92
2023/07/12 04:19:32;;;;;;;8.23;2.65;;;;;;;12.11;100.00;99976.09;6181547;22;20005;-91
2023/07/12 04:21:57;;;;;;;13.02;2.38;;;;;;;12.11;100.00;99975.28;6181135;23;20055;-91
2023/07/12 04:24:22;;;;;;;6.88;2.65;;;;;;;12.08;100.00;99972.91;6285040;22;20335;-92
2023/07/12 04:26:48;;;;;;;11.15;2.65;;;;;;;12.04;100.00;99981.81;6285203;22;20048;-92
2023/07/12 04:29:14;;;;;;;8.00;2.20;;;;;;;12.09;100.00;99987.50;6181391;22;20008;-91
2023/07/12 04:31:40;;;;;;;9.18;2.78;;;;;;;12.02;100.00;99994.03;6180820;23;20450;-92
2023/07/12 04:34:06;;;;;;;3.25;1.63;;;;;;;11.98;100.00;99999.44;6180848;23;20001;-92
2023/07/12 04:36:32;;;;;;;6.32;2.08;;;;;;;11.96;100.00;99998.69;6285210;22;20005;-91
2023/07/12 04:38:57;;;;;;;6.75;2.33;;;;;;;11.93;100.00;100006.69;6180875;23;20419;-91
2023/07/12 04:41:23;;;;;;;9.40;2.25;;;;;;;11.95;100.00;100010.00;6181103;23;20057;-92
2023/07/12 04:43:49;;;;;;;13.77;3.17;;;;;;;11.95;100.00;100014.34;6181142;22;20001;-92
2023/07/12 04:46:15;;;;;;;11.70;2.47;;;;;;;12.01;100.00;100011.31;6285353;22;20438;-91
2023/07/12 04:48:40;;;;;;;7.68;2.00;;;;;;;12.03;100.00;100016.38;6181072;22;20025;-92
2023/07/12 04:51:05;;;;;;;7.22;2.53;;;;;;;12.10;100.00;100017.63;6180730;23;20008;-92
2023/07/12 04:53:32;;;;;;;13.38;3.25;;;;;;;12.21;100.00;100007.31;6180905;22;20080;-91
2023/07/12 04:55:58;;;;;;;8.00;2.50;;;;;;;12.35;100.00;100012.34;6181188;22;20084;-92
2023/07/12 04:58:23;;;;;;;6.93;2.22;;;;;;;12.45;100.00;100009.91;6181136;22;20032;-91
2023/07/12 05:00:48;;;;;;;11.93;2.55;;;;;;;12.55;100.00;100010.91;6285147;22;20091;-91
2023/07/12 05:03:17;;;;;;;7.93;2.90;;;;;;;12.68;100.00;100008.25;6284451;22;20051;-92
2023/07/12 05:05:43;;;;;;;11.27;2.75;;;;;;;12.71;100.00;100009.78;6180595;23;20001;-92
2023/07/12 05:08:09;;;;;;;10.68;2.35;;;;;;;12.73;100.00;100013.94;6180903;22;20035;-91
2023/07/12 05:10:34;;;;;;;10.07;2.28;;;;;;;12.75;100.00;100019.81;6180949;22;20017;-92
2023/07/12 05:12:59;;;;;;;7.25;2.08;;;;;;;12.82;100.00;100015.81;6180712;23;20012;-91
2023/07/12 05:15:25;;;;;;;8.13;2.53;;;;;;;12.93;100.00;100015.03;6285335;22;20005;-92
2023/07/12 05:17:50;;;;;;;15.07;3.10;;;;;;;13.09;100.00;100017.31;6181093;22;20005;-92
2023/07/12 05:20:16;;;;;;;9.52;2.88;;;;;;;13.25;100.00;100029.94;6180774;23;20028;-91
2023/07/12 05:22:43;;;;;;;12.75;3.25;;;;;;;13.33;100.00;100029.41;6180609;22;20024;-91
2023/07/12 05:25:09;;;;;;;11.90;3.50;;;;;;;13.31;100.00;100036.47;6180719;22;20005;-91
2023/07/12 05:27:35;;;;;;;16.00;3.95;;;;;;;13.29;100.00;100034.00;6180661;22;20076;-92
2023/07/12 05:30:01;;;;;;;16.10;2.83;;;;;;;13.34;100.00;100037.06;6180981;22;20033;-92
2023/07/12 05:32:27;;;;;;;16.55;3.75;;;;;;;13.35;100.00;100043.06;6180753;22;20016;-92
2023/07/12 05:34:52;;;;;;;13.40;2.53;;;;;;;13.33;100.00;100050.13;6181197;22;20072;-91
2023/07/12 05:37:17;;;;;;;16.23;3.30;;;;;;;13.33;100.00;100047.53;6285101;22;20016;-92
2023/07/12 05:39:43;;;;;;;11.55;2.80;;;;;;;13.25;100.00;100042.91;6180540;23;20001;-91
2023/07/12 05:42:09;;;;;;;12.93;2.40;;;;;;;13.28;100.00;100048.69;6180579;22;20016;-91
2023/07/12 05:44:34;;;;;;;6.40;2.22;;;;;;;13.31;100.00;100052.00;6180457;22;20012;-91
2023/07/12 05:47:00;;;;;;;10.15;2.25;;;;;;;13.35;100.00;100053.44;6284799;22;20504;-91
2023/07/12 05:49:25;;;;;;;8.73;1.90;;;;;;;13.45;100.00;100041.44;6180805;22;20009;-92
2023/07/12 05:51:51;;;;;;;15.00;2.60;;;;;;;13.66;100.00;100047.59;6180604;22;20005;-91
2023/07/12 05:54:17;;;;;;;10.35;2.38;;;;;;;13.79;100.00;100051.81;6180441;23;20032;-91
2023/07/12 05:56:42;;;;;;;9.00;2.10;;;;;;;13.98;100.00;100052.06;6180665;22;20115;-91
2023/07/12 05:59:09;;;;;;;22.48;3.67;;;;;;;14.01;100.00;100048.41;6180334;23;20330;-91
2023/07/12 06:01:34;;;;;;;6.40;2.17;;;;;;;13.96;100.00;100053.94;6180485;22;20036;-91
2023/07/12 06:04:00;;;;;;;8.18;2.28;;;;;;;14.15;100.00;100055.09;6180259;23;19997;-93
2023/07/12 06:06:25;;;;;;;11.75;2.45;;;;;;;14.11;100.00;100055.31;6180366;23;20419;-91
2023/07/12 06:08:50;;;;;;;6.50;1.75;;;;;;;14.08;100.00;100052.97;6180466;23;20001;-91
2023/07/12 06:11:16;;;;;;;7.63;2.03;;;;;;;13.95;100.00;100065.28;6284235;22;20043;-91
2023/07/12 06:13:41;;;;;;;10.65;2.42;;;;;;;13.98;100.00;100061.63;6180287;22;20509;-90
2023/07/12 06:16:07;;;;;;;6.68;1.48;;;;;;;14.04;100.00;100067.13;6180505;22;20030;-93
2023/07/12 06:18:32;;;;;;;5.85;1.42;;;;;;;14.44;100.00;100065.78;6180266;22;20001;-92
2023/07/12 06:21:02;;;;;;;6.50;1.42;;;;;;;16.83;100.00;100058.63;6180329;22;20013;-91
2023/07/12 06:23:29;;;;;;;5.60;1.13;;;;;;;19.02;84.24;100054.63;6180175;22;20031;-92
2023/07/12 06:25:58;;;;;;;4.65;1.00;;;;;;;17.25;92.53;100062.69;6180631;22;20023;-92
2023/07/12 06:28:23;;;;;;;9.48;1.17;;;;;;;16.50;98.40;100072.03;6180277;23;19985;-91
2023/07/12 06:30:49;;;;;;;5.00;1.00;;;;;;;15.89;100.00;100071.19;6180731;23;20072;-92
2023/07/12 06:33:14;;;;;;;5.95;1.20;;;;;;;16.00;100.00;100070.28;6283684;22;20249;-91
2023/07/12 06:35:40;;;;;;;5.53;1.20;;;;;;;15.53;100.00;100080.28;6180245;22;20054;-92
2023/07/12 06:38:05;;;;;;;3.50;1.20;;;;;;;15.22;100.00;100075.06;6180619;22;20005;-92
2023/07/12 06:40:31;;;;;;;8.05;1.38;;;;;;;15.08;100.00;100072.78;6180539;22;19997;-93
2023/07/12 06:42:57;;;;;;;5.22;1.00;;;;;;;14.77;100.00;100083.88;6180118;23;20054;-91
2023/07/12 06:45:22;;;;;;;3.10;1.00;;;;;;;14.64;100.00;100091.00;6180066;22;20058;-93
2023/07/12 06:47:47;;;;;;;4.20;0.88;;;;;;;14.61;100.00;100093.03;6180307;22;20005;-91
2023/07/12 06:50:13;;;;;;;8.25;1.67;;;;;;;14.64;100.00;100090.19;6180383;23;20005;-92
2023/07/12 06:52:38;;;;;;;3.13;0.82;;;;;;;18.65;85.96;100093.97;6179897;23;20009;-92
2023/07/12 06:55:04;;;;;;;6.97;1.02;;;;;;;21.20;67.69;100088.97;6284259;22;20005;-91
2023/07/12 06:57:29;;;;;;;2.65;0.60;;;;;;;22.79;60.62;100091.47;6180207;22;20541;-92
2023/07/12 06:59:55;;;;;;;4.13;0.98;;;;;;;23.25;57.48;100092.25;6283774;22;20089;-92
2023/07/12 07:02:20;;;;;;;2.55;0.60;;;;;;;22.28;60.98;100099.84;6180323;23;20414;-91
2023/07/12 07:04:45;;;;;;;8.55;0.85;;;;;;;23.17;58.26;100105.50;6283564;22;20005;-93
2023/07/12 07:07:11;;;;;;;6.50;1.00;;;;;;;24.53;52.77;100112.22;6180147;22;20001;-92
2023/07/12 07:09:38;;;;;;;4.30;1.15;;;;;;;22.45;58.95;100111.09;6179825;23;20058;-91
2023/07/12 07:12:05;;;;;;;5.75;0.80;;;;;;;24.14;54.08;100120.44;6180270;22;20117;-92
2023/07/12 07:14:30;;;;;;;4.22;1.58;;;;;;;23.79;54.76;100120.19;6180141;22;20008;-92
2023/07/12 07:16:56;;;;;;;4.35;1.23;;;;;;;22.16;59.95;100120.38;6180441;23;20001;-92
2023/07/12 07:19:22;;;;;;;5.32;1.23;;;;;;;22.98;57.40;100133.13;6180017;23;20024;-92
2023/07/12 07:21:48;;;;;;;3.33;1.00;;;;;;;22.23;58.92;100126.63;6179895;22;20084;-92
2023/07/12 07:24:14;;;;;;;6.38;1.17;;;;;;;21.09;63.76;100121.59;6179951;22;20001;-92
2023/07/12 07:26:39;;;;;;;4.05;0.98;;;;;;;21.83;60.27;100122.34;6181702;23;20076;-92
2023/07/12 07:29:04;;;;;;;8.95;1.27;;;;;;;21.68;59.39;100119.59;6180152;23;20085;-92
2023/07/12 07:31:30;;;;;;;11.27;1.60;;;;;;;20.17;65.42;100133.84;6179769;23;20419;-90
2023/07/12 07:33:55;;;;;;;4.95;1.45;;;;;;;19.89;68.29;100131.41;6179886;23;20039;-91
2023/07/12 07:36:20;;;;;;;10.93;1.77;;;;;;;19.19;69.20;100140.09;6180278;22;20001;-91
2023/07/12 07:38:46;;;;;;;11.77;2.45;;;;;;;19.60;67.79;100131.72;6180358;23;20007;-91
2023/07/12 07:41:14;;;;;;;9.68;1.67;;;;;;;20.13;66.24;100129.91;6179866;23;20080;-90
2023/07/12 07:43:40;;;;;;;11.57;2.00;;;;;;;19.24;70.26;100137.84;6179857;22;20008;-91
2023/07/12 07:46:07;;;;;;;10.73;2.03;;;;;;;19.03;70.82;100129.50;6179786;23;20005;-91
2023/07/12 07:48:32;;;;;;;10.20;1.90;;;;;;;19.12;70.22;100141.69;6180255;22;19997;-91
2023/07/12 07:50:57;;;;;;;11.85;2.45;;;;;;;20.47;65.41;100135.91;6179732;22;20005;-90
2023/07/12 07:53:23;;;;;;;5.72;1.55;;;;;;;20.44;65.28;100140.66;6283669;22;20016;-91
2023/07/12 07:55:49;;;;;;;9.73;2.47;;;;;;;21.12;62.17;100150.16;6179624;23;20013;-91
2023/07/12 07:58:15;;;;;;;11.40;1.73;;;;;;;21.76;58.66;100143.19;6179901;22;20072;-92
2023/07/12 08:00:41;;;;;;;11.02;1.60;;;;;;;22.22;58.10;100127.63;6179840;22;20004;-93
2023/07/12 08:03:07;;;;;;;9.25;1.58;;;;;;;22.28;56.68;100136.63;6283801;22;20005;-92
2023/07/12 08:05:33;;;;;;;13.27;1.13;;;;;;;20.93;61.23;100149.47;6283533;22;20331;-91
2023/07/12 08:07:59;;;;;;;7.78;2.53;;;;;;;20.51;62.91;100152.97;6179594;22;20017;-92
2023/07/12 08:10:25;;;;;;;8.15;1.33;;;;;;;19.72;66.31;100146.22;6179694;22;20084;-92
2023/07/12 08:12:51;;;;;;;7.50;1.63;;;;;;;19.43;66.12;100143.88;6179663;22;20086;-92
2023/07/12 08:15:18;;;;;;;12.50;3.40;;;;;;;19.17;65.93;100149.88;6179553;22;19998;-91
2023/07/12 08:17:43;;;;;;;7.85;1.30;;;;;;;18.88;67.55;100151.91;6283164;22;20013;-91
2023/07/12 08:20:09;;;;;;;8.40;1.85;;;;;;;18.65;68.47;100146.25;6283239;22;20025;-91
2023/07/12 08:22:34;;;;;;;12.15;1.92;;;;;;;18.59;67.92;100151.09;6179810;23;20008;-92
2023/07/12 08:25:00;;;;;;;5.32;1.92;;;;;;;18.62;67.25;100157.81;6179916;23;20004;-92
2023/07/12 08:27:25;;;;;;;5.20;1.20;;;;;;;18.90;67.09;100168.25;6179601;23;20073;-92
2023/07/12 08:29:51;;;;;;;7.82;1.33;;;;;;;18.73;66.84;100162.84;6179591;23;20005;-91
2023/07/12 08:32:17;;;;;;;7.35;1.08;;;;;;;18.61;67.97;100164.84;6179519;22;20005;-91
2023/07/12 08:34:43;;;;;;;8.55;1.30;;;;;;;18.50;68.22;100159.00;6179151;23;20076;-91
2023/07/12 08:37:08;;;;;;;6.55;1.15;;;;;;;18.43;67.60;100161.38;6179819;22;20439;-92
2023/07/12 08:39:34;;;;;;;7.65;0.98;;;;;;;18.37;69.50;100154.94;6179427;22;20331;-90
2023/07/12 08:41:59;;;;;;;5.57;1.13;;;;;;;18.32;69.20;100162.41;6283449;22;20013;-92
2023/07/12 08:44:26;;;;;;;8.52;2.03;;;;;;;18.52;68.32;100157.88;6179349;23;20442;-92
2023/07/12 08:46:57;;;;;;;10.23;2.08;;;;;;;19.57;66.66;100156.41;6179350;23;20423;-92
2023/07/12 08:49:24;;;;;;;4.47;1.70;;;;;;;19.63;64.09;100158.41;6179367;23;20004;-91
2023/07/12 08:51:51;;;;;;;9.13;1.45;;;;;;;19.45;65.31;100160.25;6179381;22;20050;-91
2023/07/12 08:54:27;;;;;;;6.68;2.03;;;;;;;19.03;68.70;100164.31;6179432;22;20005;-91
2023/07/12 08:57:19;;;;;;;4.35;1.08;;;;;;;18.71;70.68;100162.19;6179592;23;20024;-90
2023/07/12 09:00:00;;;;;;;7.25;1.70;;;;;;;18.14;74.06;100159.72;6181310;22;20005;-91
2023/07/12 09:02:26;;;;;;;4.40;1.00;;;;;;;18.14;73.35;100161.50;6285378;22;20154;-91
2023/07/12 09:04:57;;;;;;;3.92;0.75;;;;;;;17.88;76.42;100164.75;6285003;22;20044;-92
2023/07/12 09:07:30;;;;;;;5.68;1.10;;;;;;;17.80;79.79;100159.44;6181082;22;20001;-91
2023/07/12 09:09:57;;;;;;;3.03;0.70;;;;;;;18.47;76.99;100160.13;6180843;22;20003;-91
2023/07/12 09:12:26;;;;;;;5.05;1.00;;;;;;;18.94;74.19;100159.16;6284989;22;20023;-91
2023/07/12 09:15:00;;;;;;;4.80;1.15;;;;;;;20.14;70.27;100165.59;6284399;22;20001;-91
2023/07/12 09:17:30;;;;;;;2.97;0.75;;;;;;;20.50;68.60;100160.97;6180621;22;20001;-92
2023/07/12 09:19:56;;;;;;;4.00;0.90;;;;;;;20.35;66.27;100167.81;6180642;22;20001;-91
2023/07/12 09:22:22;;;;;;;4.57;0.80;;;;;;;20.18;66.01;100166.94;6284473;22;20023;-91
2023/07/12 09:24:55;;;;;;;4.90;0.90;;;;;;;19.64;68.21;100161.84;6285049;22;20010;-91
2023/07/12 09:27:27;;;;;;;6.30;0.90;;;;;;;19.76;67.79;100167.69;6180544;22;20005;-91
2023/07/12 09:30:01;;;;;;;11.23;1.10;;;;;;;19.39;68.07;100155.63;6180583;22;20005;-92
2023/07/12 09:32:33;;;;;;;4.78;0.95;;;;;;;19.56;66.59;100156.56;6284325;22;20005;-91
2023/07/12 09:34:59;;;;;;;5.05;1.33;;;;;;;19.63;66.55;100158.41;6284563;22;20564;-92
2023/07/12 09:37:25;;;;;;;2.33;0.57;;;;;;;19.66;66.38;100162.53;6180394;23;20008;-91
2023/07/12 09:39:56;;;;;;;5.63;1.08;;;;;;;19.38;66.15;100162.63;6180446;22;20001;-92
2023/07/12 09:42:23;;;;;;;4.80;0.67;;;;;;;19.05;67.33;100153.72;6284512;22;20009;-91
2023/07/12 09:44:48;;;;;;;4.30;0.95;;;;;;;19.27;67.32;100159.47;6284215;22;20001;-91
2023/07/12 09:47:39;;;;;;;5.40;1.20;;;;;;;19.32;66.48;100160.63;6180555;23;20001;-91
2023/07/12 09:50:21;;;;;;;5.03;1.10;;;;;;;19.82;63.08;100154.78;6180406;22;20442;-92
2023/07/12 09:52:49;;;;;;;;;;;;;;;20.31;61.74;100169.91;6180588;23;20031;-91
2023/07/12 09:55:29;;;;;;;3.53;0.82;;;;;;;20.54;62.20;100157.06;6180161;23;19913;-91
2023/07/12 09:58:20;;;;;;;2.33;0.73;;;;;;;20.48;62.69;100157.69;6180407;22;20001;-91
2023/07/12 10:01:00;;;;;;;3.60;1.23;;;;;;;20.80;61.99;100172.75;6284601;22;20419;-92
2023/07/12 10:03:36;;;;;;;5.40;0.90;;;;;;;20.79;62.05;100149.28;6180361;22;20419;-91
2023/07/12 10:06:12;;;;;;;4.57;0.80;;;;;;;21.03;60.60;100140.63;6180215;22;20005;-91
2023/07/12 10:08:54;;;;;;;4.72;0.77;;;;;;;21.11;62.55;100156.38;6179489;22;20001;-92
2023/07/12 10:11:38;;;;;;;9.48;1.27;;;;;;;20.76;60.64;100166.16;6180081;22;20016;-91
2023/07/12 10:14:09;;;;;;;5.28;0.90;;;;;;;20.49;61.99;100154.91;6180234;22;20004;-91
2023/07/12 10:16:44;;;;;;;7.40;1.25;;;;;;;20.19;63.57;100163.31;6180255;22;20012;-91
2023/07/12 10:19:20;;;;;;;6.50;0.70;;;;;;;20.31;63.84;100162.06;6180604;22;20001;-90
2023/07/12 10:21:49;;;;;;;10.50;2.25;;;;;;;20.06;63.19;100161.94;6180268;22;20005;-91
2023/07/12 10:24:16;;;;;;;5.30;1.80;;;;;;;19.84;64.54;100165.94;6180287;23;20063;-91
2023/07/12 10:26:45;;;;;;;9.13;1.15;;;;;;;19.59;65.11;100172.78;6180227;22;20005;-92
2023/07/12 10:29:19;;;;;;;3.85;1.20;;;;;;;19.68;66.83;100176.31;6180149;23;20005;-91
2023/07/12 10:32:05;;;;;;;5.05;1.50;;;;;;;20.17;64.21;100170.53;6180314;22;20016;-92
2023/07/12 10:34:47;;;;;;;4.68;0.80;;;;;;;21.09;62.45;100166.19;6179974;22;20005;-91
2023/07/12 10:37:30;;;;;;;5.13;0.80;;;;;;;21.03;61.14;100162.44;6180233;22;20032;-91
2023/07/12 10:39:56;;;;;;;3.40;0.70;;;;;;;21.41;60.87;100169.84;6180270;22;20005;-92
2023/07/12 10:42:42;;;;;;;5.75;0.95;;;;;;;21.13;60.45;100175.41;6284163;22;19993;-91
2023/07/12 10:45:17;;;;;;;5.70;0.93;;;;;;;20.78;61.58;100174.69;6180101;22;20029;-91
2023/07/12 10:47:43;;;;;;;4.63;0.85;;;;;;;20.14;62.23;100179.50;6180228;22;20005;-91
2023/07/12 10:50:33;;;;;;;3.72;0.63;;;;;;;19.94;63.15;100176.28;6180126;22;20019;-91
2023/07/12 10:53:02;;;;;;;9.38;1.98;;;;;;;19.52;63.60;100178.78;6180071;22;20009;-91
2023/07/12 10:55:34;;;;;;;6.28;0.98;;;;;;;19.52;64.72;100182.22;6179933;22;20005;-91
2023/07/12 10:58:20;;;;;;;7.57;1.20;;;;;;;19.77;63.68;100178.00;6180001;23;20058;-91
2023/07/12 11:00:59;;;;;;;4.50;0.80;;;;;;;20.15;63.74;100182.97;6180179;23;20001;-91
2023/07/12 11:03:40;;;;;;;11.00;2.70;;;;;;;20.54;63.19;100180.66;6179926;22;20061;-92
2023/07/12 11:06:22;;;;;;;3.25;0.77;;;;;;;21.02;62.11;100180.94;6179978;23;19997;-91
2023/07/12 11:08:55;;;;;;;;;;;;;;;21.40;61.64;100183.97;6180751;22;20008;-90
2023/07/12 11:11:20;;;;;;;6.63;1.08;;;;;;;21.69;61.08;100173.75;6179646;23;19904;-91
2023/07/12 11:13:51;;;;;;;7.78;1.80;;;;;;;21.63;60.81;100168.34;6283589;22;20012;-91
2023/07/12 11:16:19;;;;;;;3.10;0.82;;;;;;;21.78;60.87;100170.13;6180282;22;20008;-92
2023/07/12 11:18:57;;;;;;;4.78;1.25;;;;;;;21.76;58.88;100179.97;6283659;22;20386;-93
2023/07/12 11:21:51;;;;;;;8.60;1.63;;;;;;;21.49;59.21;100181.16;6179825;22;20005;-93
2023/07/12 11:24:26;;;;;;;4.22;0.88;;;;;;;21.85;59.22;100182.59;6180552;22;20313;-91
2023/07/12 11:27:00;;;;;;;6.10;1.00;;;;;;;21.63;55.79;100190.19;6283704;22;20435;-91